createdAt,value
2022-07-25T00:03:39.276Z,47.30
2022-07-25T00:07:53.889Z,47.40
2022-07-25T00:12:08.112Z,47.60
2022-07-25T00:16:26.384Z,47.70
2022-07-25T00:20:40.156Z,47.90
2022-07-25T00:24:53.928Z,47.90
2022-07-25T00:29:07.948Z,48.00
2022-07-25T00:33:23.182Z,48.00
2022-07-25T00:37:36.958Z,48.30
2022-07-25T00:41:50.795Z,48.30
2022-07-25T00:46:04.625Z,48.40
2022-07-25T00:50:19.995Z,48.60
2022-07-25T00:54:34.226Z,49.50
2022-07-25T00:58:48.166Z,48.80
2022-07-25T01:03:02.049Z,49.00
2022-07-25T01:07:18.451Z,49.10
2022-07-25T01:11:32.360Z,49.40
2022-07-25T01:15:46.332Z,49.50
2022-07-25T01:20:00.238Z,49.90
2022-07-25T01:24:15.387Z,50.30
2022-07-25T01:28:29.661Z,50.50
2022-07-25T01:32:44.005Z,50.80
2022-07-25T01:36:57.872Z,51.10
2022-07-25T01:41:13.049Z,51.60
2022-07-25T01:45:36.874Z,51.80
2022-07-25T01:49:50.881Z,52.30
2022-07-25T01:54:05.745Z,52.60
2022-07-25T01:58:25.713Z,52.70
2022-07-25T02:02:39.650Z,52.80
2022-07-25T02:06:53.384Z,53.00
2022-07-25T02:11:07.400Z,53.30
2022-07-25T02:15:22.492Z,53.90
2022-07-25T02:19:36.718Z,54.10
2022-07-25T02:23:50.808Z,54.30
2022-07-25T02:28:04.817Z,54.40
2022-07-25T02:32:20.116Z,54.50
2022-07-25T02:36:34.149Z,54.80
2022-07-25T02:40:47.942Z,54.80
2022-07-25T02:45:01.698Z,55.00
2022-07-25T02:49:16.852Z,55.10
2022-07-25T02:53:54.799Z,55.30
2022-07-25T02:58:04.543Z,55.60
2022-07-25T03:02:18.353Z,55.70
2022-07-25T03:06:33.457Z,55.80
2022-07-25T03:10:47.464Z,56.10
2022-07-25T03:15:01.806Z,56.20
2022-07-25T03:19:15.508Z,56.30
2022-07-25T03:23:31.114Z,56.60
2022-07-25T03:27:44.861Z,56.60
2022-07-25T03:31:59.389Z,56.90
2022-07-25T03:36:13.195Z,57.10
2022-07-25T03:40:28.326Z,57.30
2022-07-25T03:44:42.216Z,57.50
2022-07-25T03:48:56.499Z,57.80
2022-07-25T03:53:10.227Z,57.90
2022-07-25T03:57:25.500Z,58.10
2022-07-25T04:01:39.447Z,57.80
2022-07-25T04:05:53.194Z,57.10
2022-07-25T04:10:08.153Z,56.50
2022-07-25T04:14:23.443Z,55.20
2022-07-25T04:18:37.413Z,53.70
2022-07-25T04:22:51.810Z,53.40
2022-07-25T04:27:05.785Z,53.20
2022-07-25T04:31:21.062Z,52.60
2022-07-25T04:35:34.818Z,51.60
2022-07-25T04:39:48.531Z,51.30
2022-07-25T04:44:02.334Z,50.60
2022-07-25T04:48:17.596Z,49.70
2022-07-25T04:52:31.353Z,48.80
2022-07-25T04:56:45.076Z,47.50
2022-07-25T05:00:58.825Z,45.60
2022-07-25T05:05:21.173Z,44.70
2022-07-25T05:09:35.557Z,42.80
2022-07-25T05:13:49.327Z,41.30
2022-07-25T05:18:03.568Z,40.90
2022-07-25T05:22:18.756Z,40.30
2022-07-25T05:26:32.559Z,39.90
2022-07-25T05:30:46.345Z,39.40
2022-07-25T05:35:00.216Z,38.90
2022-07-25T05:39:15.392Z,38.30
2022-07-25T05:43:29.271Z,37.50
2022-07-25T05:47:42.996Z,36.90
2022-07-25T05:51:56.682Z,36.60
2022-07-25T05:56:12.094Z,36.30
2022-07-25T06:00:26.272Z,36.50
2022-07-25T06:04:40.040Z,36.00
2022-07-25T06:08:54.236Z,36.10
2022-07-25T06:13:10.136Z,35.80
2022-07-25T06:17:26.960Z,35.40
2022-07-25T06:21:44.385Z,35.00
2022-07-25T06:25:58.255Z,33.80
2022-07-25T06:30:19.780Z,33.30
2022-07-25T06:34:34.272Z,32.00
2022-07-25T06:38:47.992Z,31.50
2022-07-25T06:43:02.444Z,31.30
2022-07-25T06:47:17.551Z,31.40
2022-07-25T06:51:31.523Z,31.60
2022-07-25T06:55:45.528Z,31.10
2022-07-25T06:59:59.934Z,30.20
2022-07-25T07:04:15.064Z,29.80
2022-07-25T07:08:28.829Z,29.90
2022-07-25T07:12:42.736Z,29.90
2022-07-25T07:16:56.549Z,30.00
2022-07-25T07:21:11.761Z,29.50
2022-07-25T07:25:35.838Z,29.60
2022-07-25T07:29:49.700Z,29.00
2022-07-25T07:34:03.576Z,27.80
2022-07-25T07:38:19.016Z,27.20
2022-07-25T07:42:39.142Z,26.80
2022-07-25T07:46:53.050Z,26.90
2022-07-25T07:51:07.701Z,26.90
2022-07-25T07:55:41.201Z,26.50
2022-07-25T07:59:54.928Z,26.30
2022-07-25T08:04:10.219Z,25.60
2022-07-25T08:08:27.853Z,25.20
2022-07-25T08:12:46.027Z,25.00
2022-07-25T08:16:59.820Z,24.50
2022-07-25T08:21:13.741Z,24.40
2022-07-25T08:25:27.650Z,24.20
2022-07-25T08:29:43.660Z,24.10
2022-07-25T08:33:57.568Z,23.90
2022-07-25T08:38:12.127Z,24.20
2022-07-25T08:42:25.895Z,24.40
2022-07-25T08:46:42.635Z,23.90
2022-07-25T08:50:58.172Z,24.10
2022-07-25T08:55:14.729Z,24.30
2022-07-25T08:59:31.767Z,24.70
2022-07-25T09:03:47.205Z,24.50
2022-07-25T09:08:08.711Z,24.50
2022-07-25T09:12:27.176Z,24.10
2022-07-25T09:16:44.619Z,23.50
2022-07-25T09:21:01.530Z,23.10
2022-07-25T09:25:27.339Z,22.80
2022-07-25T09:29:42.742Z,22.70
2022-07-25T09:33:59.318Z,22.20
2022-07-25T09:38:15.992Z,23.00
2022-07-25T09:42:33.373Z,23.50
2022-07-25T09:46:47.532Z,23.80
2022-07-25T09:51:02.745Z,23.80
2022-07-25T09:55:17.893Z,23.40
2022-07-25T09:59:32.341Z,23.30
2022-07-25T10:03:53.048Z,23.80
2022-07-25T10:08:08.663Z,23.50
2022-07-25T10:12:25.129Z,23.10
2022-07-25T10:16:47.166Z,22.80
2022-07-25T10:21:28.701Z,23.30
2022-07-25T10:25:48.705Z,23.70
2022-07-25T10:30:04.649Z,23.70
2022-07-25T10:34:28.785Z,24.20
2022-07-25T10:38:47.332Z,24.30
2022-07-25T10:43:19.648Z,24.00
2022-07-25T10:47:38.244Z,23.80
2022-07-25T10:51:57.580Z,23.10
2022-07-25T10:56:14.909Z,22.40
2022-07-25T11:00:29.185Z,23.00
2022-07-25T11:04:45.003Z,22.70
2022-07-25T11:09:01.260Z,22.60
2022-07-25T11:13:16.731Z,23.00
2022-07-25T11:17:30.768Z,22.70
2022-07-25T11:21:47.789Z,22.50
2022-07-25T11:26:12.258Z,22.20
2022-07-25T11:30:27.702Z,22.10
2022-07-25T11:34:44.280Z,22.70
2022-07-25T11:38:59.528Z,22.70
2022-07-25T11:43:21.286Z,22.50
2022-07-25T11:47:35.286Z,22.50
2022-07-25T11:51:49.079Z,23.10
2022-07-25T11:56:40.806Z,22.60
2022-07-25T12:00:51.148Z,23.00
2022-07-25T12:05:06.761Z,23.60
2022-07-25T12:09:23.244Z,24.50
2022-07-25T12:13:38.439Z,25.00
2022-07-25T12:17:53.251Z,25.50
2022-07-25T12:22:07.200Z,26.10
2022-07-25T12:26:21.278Z,26.60
2022-07-25T12:30:37.701Z,26.90
2022-07-25T12:34:51.851Z,27.10
2022-07-25T12:39:05.918Z,27.20
2022-07-25T12:43:20.071Z,27.40
2022-07-25T12:47:35.402Z,27.30
2022-07-25T12:51:50.791Z,27.40
2022-07-25T12:56:06.751Z,27.40
2022-07-25T13:00:23.123Z,27.40
2022-07-25T13:04:38.466Z,27.30
2022-07-25T13:08:52.328Z,27.30
2022-07-25T13:13:06.270Z,27.60
2022-07-25T13:17:24.948Z,27.70
2022-07-25T13:21:42.739Z,27.70
2022-07-25T13:25:56.815Z,27.50
2022-07-25T13:30:11.700Z,27.50
2022-07-25T13:34:25.532Z,27.10
2022-07-25T13:38:41.529Z,26.90
2022-07-25T13:42:55.430Z,26.70
2022-07-25T13:47:09.310Z,26.70
2022-07-25T13:51:23.354Z,26.80
2022-07-25T13:55:39.094Z,26.90
2022-07-25T13:59:52.848Z,26.90
2022-07-25T14:04:06.933Z,26.80
2022-07-25T14:08:20.740Z,26.60
2022-07-25T14:12:36.193Z,26.30
2022-07-25T14:16:50.523Z,26.00
2022-07-25T14:21:04.615Z,26.00
2022-07-25T14:25:19.708Z,26.00
2022-07-25T14:29:38.244Z,26.20
2022-07-25T14:33:52.242Z,26.20
2022-07-25T14:38:06.807Z,26.10
2022-07-25T14:42:20.884Z,26.00
2022-07-25T14:46:36.330Z,26.10
2022-07-25T14:50:50.468Z,26.20
2022-07-25T14:55:04.695Z,26.40
2022-07-25T14:59:20.301Z,26.50
2022-07-25T15:03:35.496Z,26.70
2022-07-25T15:07:49.369Z,26.80
2022-07-25T15:12:03.193Z,26.80
2022-07-25T15:16:18.020Z,26.90
2022-07-25T15:20:33.544Z,26.80
2022-07-25T15:25:17.919Z,26.80
2022-07-25T15:29:21.601Z,26.90
2022-07-25T15:33:35.683Z,26.80
2022-07-25T15:37:50.866Z,26.90
2022-07-25T15:42:04.686Z,27.10
2022-07-25T15:46:18.541Z,27.20
2022-07-25T15:50:34.548Z,27.30
2022-07-25T15:54:49.687Z,27.40
2022-07-25T15:59:03.731Z,27.40
2022-07-25T16:03:17.532Z,27.50
2022-07-25T16:07:31.379Z,27.30
2022-07-25T16:11:47.344Z,27.30
2022-07-25T16:16:01.214Z,27.40
2022-07-25T16:20:15.093Z,27.60
2022-07-25T16:24:28.970Z,27.90
2022-07-25T16:28:44.300Z,28.00
2022-07-25T16:32:58.144Z,28.30
2022-07-25T16:37:12.734Z,31.00
2022-07-25T16:41:26.705Z,37.00
2022-07-25T16:45:43.109Z,42.20
2022-07-25T16:49:56.864Z,45.70
2022-07-25T16:54:10.715Z,49.50
2022-07-25T16:58:25.132Z,51.60
2022-07-25T17:02:40.390Z,54.00
2022-07-25T17:06:55.315Z,55.80
2022-07-25T17:11:09.130Z,56.60
2022-07-25T17:15:23.025Z,57.70
2022-07-25T17:19:39.889Z,58.00
2022-07-25T17:23:54.706Z,59.90
2022-07-25T17:28:09.249Z,61.10
2022-07-25T17:32:26.439Z,61.60
2022-07-25T17:36:45.014Z,62.40
2022-07-25T17:40:58.740Z,63.40
2022-07-25T17:45:31.312Z,64.00
2022-07-25T17:49:45.070Z,64.60
2022-07-25T17:54:00.355Z,64.10
2022-07-25T17:58:14.182Z,64.10
2022-07-25T18:02:28.029Z,64.10
2022-07-25T18:06:42.012Z,63.90
2022-07-25T18:10:57.205Z,63.00
2022-07-25T18:15:14.365Z,62.50
2022-07-25T18:19:28.133Z,61.90
2022-07-25T18:23:41.882Z,61.60
2022-07-25T18:27:57.158Z,61.20
2022-07-25T18:32:10.892Z,61.30
2022-07-25T18:36:24.746Z,61.30
2022-07-25T18:40:38.673Z,61.40
2022-07-25T18:44:53.906Z,61.60
2022-07-25T18:49:07.747Z,61.90
2022-07-25T18:53:21.622Z,62.60
2022-07-25T18:57:35.646Z,63.50
2022-07-25T19:01:51.206Z,64.10
2022-07-25T19:06:05.815Z,64.70
2022-07-25T19:10:20.021Z,64.80
2022-07-25T19:14:33.814Z,64.70
2022-07-25T19:18:49.013Z,64.60
2022-07-25T19:23:02.864Z,64.40
2022-07-25T19:27:19.906Z,64.00
2022-07-25T19:31:34.288Z,63.90
2022-07-25T19:35:49.543Z,63.80
2022-07-25T19:40:04.185Z,63.80
2022-07-25T19:44:18.248Z,64.10
2022-07-25T19:48:32.233Z,65.50
2022-07-25T19:52:47.684Z,66.10
2022-07-25T19:57:01.580Z,66.30
2022-07-25T20:01:15.440Z,66.30
2022-07-25T20:05:29.306Z,66.90
2022-07-25T20:09:44.442Z,67.00
2022-07-25T20:13:58.686Z,67.30
2022-07-25T20:18:17.387Z,67.50
2022-07-25T20:22:37.388Z,67.90
2022-07-25T20:26:52.485Z,68.10
2022-07-25T20:31:06.588Z,68.20
2022-07-25T20:35:20.432Z,68.30
2022-07-25T20:39:35.108Z,68.50
2022-07-25T20:43:50.244Z,69.50
2022-07-25T20:48:04.243Z,69.20
2022-07-25T20:52:18.254Z,69.30
2022-07-25T20:56:32.069Z,69.10
2022-07-25T21:00:47.391Z,68.80
2022-07-25T21:05:02.384Z,68.70
2022-07-25T21:09:16.499Z,68.50
2022-07-25T21:13:32.538Z,68.40
2022-07-25T21:17:48.408Z,68.20
2022-07-25T21:22:04.005Z,68.20
2022-07-25T21:26:17.827Z,68.20
2022-07-25T21:30:31.628Z,68.20
2022-07-25T21:34:47.345Z,68.50
2022-07-25T21:39:01.057Z,68.70
2022-07-25T21:43:14.802Z,69.00
2022-07-25T21:47:28.524Z,69.30
2022-07-25T21:51:43.611Z,69.70
2022-07-25T21:55:57.819Z,70.30
2022-07-25T22:00:13.784Z,70.70
2022-07-25T22:04:27.728Z,71.00
2022-07-25T22:08:42.934Z,71.10
2022-07-25T22:12:56.805Z,71.60
2022-07-25T22:17:10.534Z,71.60
2022-07-25T22:21:24.390Z,71.80
2022-07-25T22:25:39.588Z,71.50
2022-07-25T22:29:53.340Z,71.30
2022-07-25T22:34:07.154Z,71.20
2022-07-25T22:38:21.002Z,71.10
2022-07-25T22:42:36.526Z,70.70
2022-07-25T22:46:50.380Z,70.60
2022-07-25T22:51:04.103Z,70.70
2022-07-25T22:55:17.949Z,70.90
2022-07-25T22:59:33.530Z,71.30
2022-07-25T23:03:47.622Z,71.70
2022-07-25T23:08:01.471Z,71.80
2022-07-25T23:12:15.366Z,71.90
2022-07-25T23:16:30.584Z,72.10
2022-07-25T23:20:44.453Z,72.30
2022-07-25T23:24:58.676Z,72.60
2022-07-25T23:29:12.639Z,72.60
2022-07-25T23:33:27.808Z,72.60
2022-07-25T23:37:43.261Z,72.80
2022-07-25T23:41:57.040Z,73.00
2022-07-25T23:46:10.822Z,73.20
2022-07-25T23:50:27.415Z,73.40
2022-07-25T23:54:41.145Z,73.70
2022-07-25T23:58:54.933Z,73.90
